createdAt,value
2019-01-03T00:01:35.760Z,90.30
2019-01-03T00:04:19.240Z,90.00
2019-01-03T00:07:16.748Z,89.50
2019-01-03T00:10:05.070Z,88.90
2019-01-03T00:12:52.064Z,87.60
2019-01-03T00:15:38.994Z,87.70
2019-01-03T00:18:37.250Z,86.80
2019-01-03T00:21:26.455Z,86.70
2019-01-03T00:24:17.826Z,85.90
2019-01-03T00:27:04.652Z,84.60
2019-01-03T00:29:46.818Z,83.30
2019-01-03T00:32:36.200Z,82.20
2019-01-03T00:35:36.685Z,81.20
2019-01-03T00:38:25.364Z,80.40
2019-01-03T00:41:13.772Z,78.00
2019-01-03T00:44:00.734Z,77.30
2019-01-03T00:46:52.388Z,78.90
2019-01-03T00:49:40.370Z,77.40
2019-01-03T00:52:18.150Z,75.20
2019-01-03T00:55:05.418Z,75.20
2019-01-03T00:57:59.955Z,73.60
2019-01-03T01:00:42.474Z,72.40
2019-01-03T01:03:29.506Z,71.30
2019-01-03T01:06:27.243Z,71.40
2019-01-03T01:09:18.287Z,71.20
2019-01-03T01:12:18.845Z,71.50
2019-01-03T01:15:05.641Z,70.90
2019-01-03T01:17:52.711Z,70.40
2019-01-03T01:20:44.313Z,71.80
2019-01-03T01:23:31.627Z,70.30
2019-01-03T01:26:19.249Z,70.00
2019-01-03T01:29:12.477Z,70.40
2019-01-03T01:32:00.862Z,69.90
2019-01-03T01:34:48.038Z,69.10
2019-01-03T01:37:34.584Z,68.90
2019-01-03T01:40:16.651Z,69.10
2019-01-03T01:43:18.680Z,68.00
2019-01-03T01:46:13.321Z,68.60
2019-01-03T01:49:01.745Z,66.60
2019-01-03T01:51:59.444Z,66.30
2019-01-03T01:54:46.685Z,66.50
2019-01-03T01:57:35.012Z,66.20
2019-01-03T02:00:22.677Z,66.20
2019-01-03T02:03:09.934Z,66.80
2019-01-03T02:05:58.332Z,68.00
2019-01-03T02:08:46.935Z,67.60
2019-01-03T02:11:51.458Z,67.20
2019-01-03T02:14:38.399Z,66.30
2019-01-03T02:17:39.006Z,67.10
2019-01-03T02:20:33.662Z,66.60
2019-01-03T02:23:22.025Z,68.10
2019-01-03T02:26:28.556Z,68.10
2019-01-03T02:29:31.959Z,69.30
2019-01-03T02:32:28.988Z,69.60
2019-01-03T02:35:16.070Z,70.90
2019-01-03T02:38:22.905Z,72.00
2019-01-03T02:41:29.691Z,72.80
2019-01-03T02:44:20.773Z,73.60
2019-01-03T02:47:02.596Z,74.30
2019-01-03T02:49:56.891Z,73.10
2019-01-03T02:52:54.230Z,73.90
2019-01-03T02:55:43.255Z,73.80
2019-01-03T02:58:35.462Z,74.50
2019-01-03T03:01:13.618Z,75.20
2019-01-03T03:04:19.552Z,74.90
2019-01-03T03:07:04.445Z,76.70
2019-01-03T03:09:53.811Z,74.40
2019-01-03T03:12:40.780Z,74.50
2019-01-03T03:15:32.213Z,75.30
2019-01-03T03:18:19.836Z,75.40
2019-01-03T03:21:02.851Z,75.60
2019-01-03T03:23:49.982Z,75.30
2019-01-03T03:26:33.502Z,73.40
2019-01-03T03:29:40.298Z,72.50
2019-01-03T03:32:43.753Z,71.50
2019-01-03T03:35:34.869Z,70.80
2019-01-03T03:38:22.683Z,70.10
2019-01-03T03:41:11.483Z,69.40
2019-01-03T03:44:12.021Z,69.00
2019-01-03T03:46:57.015Z,67.90
2019-01-03T03:49:48.293Z,68.00
2019-01-03T03:52:29.276Z,67.00
2019-01-03T03:55:20.355Z,65.60
2019-01-03T03:58:14.969Z,65.00
2019-01-03T04:01:02.293Z,65.10
2019-01-03T04:03:49.541Z,64.20
2019-01-03T04:06:43.987Z,64.60
2019-01-03T04:09:27.118Z,65.40
2019-01-03T04:12:15.454Z,63.70
2019-01-03T04:15:02.807Z,64.50
2019-01-03T04:17:54.695Z,63.50
2019-01-03T04:20:52.559Z,63.60
2019-01-03T04:23:40.827Z,63.90
2019-01-03T04:26:38.765Z,63.30
2019-01-03T04:29:26.131Z,63.80
2019-01-03T04:32:14.592Z,64.50
2019-01-03T04:34:55.199Z,63.50
2019-01-03T04:37:42.497Z,63.30
2019-01-03T04:40:37.031Z,64.90
2019-01-03T04:43:31.529Z,63.80
2019-01-03T04:46:18.984Z,64.10
2019-01-03T04:49:03.895Z,64.60
2019-01-03T04:52:05.377Z,64.10
2019-01-03T04:54:53.124Z,65.10
2019-01-03T04:57:40.238Z,65.40
2019-01-03T05:00:27.547Z,65.30
2019-01-03T05:03:14.986Z,67.20
2019-01-03T05:05:55.738Z,66.00
2019-01-03T05:08:43.168Z,65.90
2019-01-03T05:11:30.126Z,66.60
2019-01-03T05:14:24.461Z,66.50
2019-01-03T05:17:28.037Z,66.70
2019-01-03T05:20:34.745Z,67.50
2019-01-03T05:23:32.167Z,67.60
2019-01-03T05:26:33.540Z,68.20
2019-01-03T05:29:29.955Z,67.60
2019-01-03T05:32:17.342Z,66.70
2019-01-03T05:35:22.490Z,67.50
2019-01-03T05:38:10.014Z,67.90
2019-01-03T05:40:50.566Z,66.40
2019-01-03T05:43:38.972Z,66.50
2019-01-03T05:46:34.741Z,66.90
2019-01-03T05:49:22.239Z,66.80
2019-01-03T05:52:28.920Z,67.00
2019-01-03T05:55:32.800Z,67.20
2019-01-03T05:58:25.053Z,67.80
2019-01-03T06:01:12.258Z,68.80
2019-01-03T06:04:03.538Z,68.60
2019-01-03T06:06:51.927Z,69.10
2019-01-03T06:09:40.394Z,69.00
2019-01-03T06:12:31.808Z,68.60
2019-01-03T06:15:12.293Z,67.50
2019-01-03T06:18:03.635Z,66.00
2019-01-03T06:20:54.444Z,66.70
2019-01-03T06:23:56.068Z,66.80
2019-01-03T06:26:42.515Z,65.60
2019-01-03T06:29:33.706Z,65.40
2019-01-03T06:32:21.251Z,64.60
2019-01-03T06:35:15.652Z,65.50
2019-01-03T06:37:55.757Z,66.10
2019-01-03T06:40:55.605Z,65.00
2019-01-03T06:43:42.773Z,64.50
2019-01-03T06:46:29.984Z,64.90
2019-01-03T06:49:24.268Z,63.90
2019-01-03T06:52:12.533Z,62.70
2019-01-03T06:55:12.909Z,63.00
2019-01-03T06:58:04.249Z,62.90
2019-01-03T07:00:51.017Z,63.40
2019-01-03T07:03:45.614Z,62.90
2019-01-03T07:06:40.252Z,61.60
2019-01-03T07:09:32.385Z,61.90
2019-01-03T07:12:19.702Z,62.40
2019-01-03T07:15:07.978Z,61.70
2019-01-03T07:17:55.184Z,61.50
2019-01-03T07:20:42.012Z,62.80
2019-01-03T07:23:48.735Z,62.20
2019-01-03T07:26:49.376Z,62.00
2019-01-03T07:29:37.808Z,62.20
2019-01-03T07:32:33.420Z,62.60
2019-01-03T07:35:20.736Z,63.40
2019-01-03T07:38:19.000Z,62.10
2019-01-03T07:41:10.356Z,61.30
2019-01-03T07:44:14.329Z,62.70
2019-01-03T07:47:02.746Z,61.40
2019-01-03T07:50:09.729Z,61.10
2019-01-03T07:52:56.612Z,62.30
2019-01-03T07:55:57.309Z,61.90
2019-01-03T07:58:44.450Z,61.90
2019-01-03T08:01:30.860Z,61.70
2019-01-03T08:04:34.144Z,61.50
2019-01-03T08:07:22.396Z,61.60
2019-01-03T08:10:08.451Z,60.80
2019-01-03T08:13:11.098Z,61.00
2019-01-03T08:16:10.428Z,60.40
2019-01-03T08:18:58.951Z,59.70
2019-01-03T08:21:50.129Z,60.80
2019-01-03T08:24:42.309Z,60.50
2019-01-03T08:27:30.676Z,59.70
2019-01-03T08:30:10.690Z,60.50
2019-01-03T08:32:58.121Z,61.20
2019-01-03T08:35:46.471Z,60.90
2019-01-03T08:38:33.857Z,60.50
2019-01-03T08:41:26.177Z,60.40
2019-01-03T08:44:23.621Z,60.60
2019-01-03T08:47:14.815Z,60.50
2019-01-03T08:50:21.377Z,60.60
2019-01-03T08:53:22.007Z,59.60
2019-01-03T08:56:08.908Z,60.90
2019-01-03T08:59:00.424Z,60.70
2019-01-03T09:01:48.827Z,59.70
2019-01-03T09:04:36.231Z,60.30
2019-01-03T09:07:24.565Z,60.40
2019-01-03T09:10:23.556Z,60.80
2019-01-03T09:13:10.503Z,60.90
2019-01-03T09:15:57.543Z,60.60
2019-01-03T09:18:51.862Z,60.80
2019-01-03T09:21:49.135Z,62.00
2019-01-03T09:24:40.215Z,61.90
2019-01-03T09:27:43.922Z,61.00
2019-01-03T09:30:31.374Z,60.60
2019-01-03T09:33:35.129Z,60.60
2019-01-03T09:36:22.478Z,58.70
2019-01-03T09:39:09.987Z,59.00
2019-01-03T09:42:07.426Z,58.80
2019-01-03T09:44:44.996Z,58.60
2019-01-03T09:47:14.268Z,58.40
2019-01-03T09:49:43.723Z,59.80
2019-01-03T09:52:13.160Z,60.40
2019-01-03T09:54:42.557Z,61.00
2019-01-03T09:57:11.855Z,61.20
2019-01-03T09:59:41.240Z,61.50
2019-01-03T10:02:10.556Z,61.70
2019-01-03T10:04:39.940Z,62.40
2019-01-03T10:07:09.310Z,61.40
2019-01-03T10:09:38.566Z,60.40
2019-01-03T10:12:08.002Z,60.90
2019-01-03T10:14:37.277Z,61.50
2019-01-03T10:17:07.092Z,59.50
2019-01-03T10:19:36.792Z,58.40
2019-01-03T10:22:07.088Z,57.20
2019-01-03T10:24:36.436Z,58.60
2019-01-03T10:27:05.949Z,60.10
2019-01-03T10:29:35.593Z,62.50
2019-01-03T10:32:05.058Z,61.80
2019-01-03T10:34:34.327Z,61.70
2019-01-03T10:37:03.779Z,62.50
2019-01-03T10:39:33.115Z,63.20
2019-01-03T10:42:02.550Z,63.70
2019-01-03T10:44:31.984Z,62.60
2019-01-03T10:47:01.913Z,64.40
2019-01-03T10:49:31.262Z,65.30
2019-01-03T10:52:00.763Z,68.10
2019-01-03T10:54:30.148Z,71.10
2019-01-03T10:56:59.559Z,72.50
2019-01-03T10:59:28.907Z,71.50
2019-01-03T11:02:06.237Z,70.60
2019-01-03T11:04:35.618Z,69.90
2019-01-03T11:07:05.077Z,69.30
2019-01-03T11:09:34.378Z,69.60
2019-01-03T11:12:03.786Z,69.40
2019-01-03T11:14:33.192Z,69.50
2019-01-03T11:17:08.503Z,69.70
2019-01-03T11:19:37.810Z,70.10
2019-01-03T11:22:07.277Z,70.40
2019-01-03T11:24:36.580Z,70.20
2019-01-03T11:27:06.042Z,70.30
2019-01-03T11:29:35.429Z,70.40
2019-01-03T11:32:04.918Z,70.40
2019-01-03T11:34:34.405Z,69.60
2019-01-03T11:37:03.893Z,70.30
2019-01-03T11:39:34.303Z,70.80
2019-01-03T11:42:03.636Z,71.70
2019-01-03T11:44:33.054Z,71.80
2019-01-03T11:47:02.584Z,73.20
2019-01-03T11:49:31.951Z,72.50
2019-01-03T11:52:02.977Z,73.90
2019-01-03T11:54:32.309Z,73.90
2019-01-03T11:57:04.495Z,73.60
2019-01-03T11:59:33.804Z,74.20
2019-01-03T12:02:03.253Z,74.10
2019-01-03T12:04:32.654Z,73.70
2019-01-03T12:07:02.179Z,74.10
2019-01-03T12:09:31.578Z,75.20
2019-01-03T12:12:00.898Z,77.60
2019-01-03T12:14:31.332Z,78.10
2019-01-03T12:17:00.992Z,79.50
2019-01-03T12:19:30.517Z,79.40
2019-01-03T12:21:59.933Z,79.80
2019-01-03T12:24:30.720Z,79.20
2019-01-03T12:27:00.350Z,79.30
2019-01-03T12:29:29.881Z,79.30
2019-01-03T12:31:59.189Z,77.40
2019-01-03T12:34:28.689Z,76.60
2019-01-03T12:37:02.890Z,76.50
2019-01-03T12:39:42.389Z,76.20
2019-01-03T12:42:12.530Z,75.10
2019-01-03T12:44:41.933Z,75.30
2019-01-03T12:47:15.968Z,76.00
2019-01-03T12:50:00.452Z,75.30
2019-01-03T12:52:30.405Z,76.60
2019-01-03T12:54:59.829Z,77.20
2019-01-03T12:57:31.422Z,77.80
2019-01-03T13:00:05.820Z,79.80
2019-01-03T13:02:46.057Z,80.70
2019-01-03T13:05:15.433Z,83.30
2019-01-03T13:07:46.229Z,85.70
2019-01-03T13:10:15.610Z,87.60
2019-01-03T13:12:45.727Z,88.00
2019-01-03T13:15:15.241Z,89.90
2019-01-03T13:17:44.771Z,89.70
2019-01-03T13:20:15.350Z,90.70
2019-01-03T13:22:44.750Z,91.20
2019-01-03T13:25:14.137Z,91.40
2019-01-03T13:27:43.445Z,91.60
2019-01-03T13:30:12.929Z,91.50
2019-01-03T13:32:42.526Z,91.30
2019-01-03T13:35:11.940Z,91.10
2019-01-03T13:37:43.605Z,90.90
2019-01-03T13:40:12.967Z,91.60
2019-01-03T13:42:45.453Z,91.10
2019-01-03T13:45:14.945Z,91.60
2019-01-03T13:47:46.297Z,91.20
2019-01-03T13:50:23.692Z,91.40
2019-01-03T13:52:53.706Z,91.50
2019-01-03T13:55:23.546Z,91.10
2019-01-03T13:57:52.966Z,91.50
2019-01-03T14:00:28.321Z,91.70
2019-01-03T14:02:57.613Z,92.00
2019-01-03T14:05:33.956Z,92.20
2019-01-03T14:08:03.806Z,92.50
2019-01-03T14:10:36.973Z,92.40
2019-01-03T14:13:06.331Z,92.90
2019-01-03T14:15:36.838Z,93.20
2019-01-03T14:18:06.168Z,93.20
2019-01-03T14:20:35.601Z,92.20
2019-01-03T14:23:04.866Z,92.20
2019-01-03T14:25:41.232Z,93.10
2019-01-03T14:28:10.575Z,93.80
2019-01-03T14:30:43.506Z,94.00
2019-01-03T14:33:13.021Z,94.20
2019-01-03T14:35:42.623Z,94.70
2019-01-03T14:38:20.941Z,95.00
2019-01-03T14:40:50.235Z,95.20
2019-01-03T14:43:20.769Z,95.50
2019-01-03T14:45:50.289Z,95.90
2019-01-03T14:48:20.782Z,95.70
2019-01-03T14:50:50.081Z,95.80
2019-01-03T14:53:22.523Z,95.60
2019-01-03T14:55:51.785Z,95.70
2019-01-03T14:58:22.326Z,95.80
2019-01-03T15:00:57.817Z,95.80
2019-01-03T15:03:27.154Z,95.90
2019-01-03T15:05:56.565Z,96.10
2019-01-03T15:08:31.902Z,95.70
2019-01-03T15:11:03.430Z,95.60
2019-01-03T15:13:35.979Z,94.40
2019-01-03T15:16:07.999Z,94.10
2019-01-03T15:18:53.322Z,93.00
2019-01-03T15:21:22.651Z,92.40
2019-01-03T15:23:52.361Z,92.10
2019-01-03T15:26:22.375Z,92.10
2019-01-03T15:28:58.107Z,92.30
2019-01-03T15:31:31.823Z,92.50
2019-01-03T15:34:03.336Z,92.00
2019-01-03T15:36:40.557Z,92.00
2019-01-03T15:39:13.943Z,91.90
2019-01-03T15:41:44.341Z,91.90
2019-01-03T15:44:16.427Z,92.40
2019-01-03T15:46:48.425Z,92.10
2019-01-03T15:49:18.670Z,91.70
2019-01-03T15:51:48.275Z,91.30
2019-01-03T15:54:18.214Z,91.40
2019-01-03T15:56:47.874Z,91.20
2019-01-03T15:59:17.939Z,90.90
2019-01-03T16:01:47.531Z,91.50
2019-01-03T16:04:17.470Z,91.30
2019-01-03T16:06:46.890Z,91.50
2019-01-03T16:09:16.705Z,91.40
2019-01-03T16:11:46.412Z,91.50
2019-01-03T16:14:16.132Z,91.10
2019-01-03T16:16:45.685Z,91.50
2019-01-03T16:19:15.072Z,91.20
2019-01-03T16:21:45.612Z,91.50
2019-01-03T16:24:14.858Z,90.80
2019-01-03T16:26:44.298Z,90.80
2019-01-03T16:29:13.588Z,90.80
2019-01-03T16:31:43.132Z,90.90
2019-01-03T16:34:12.392Z,91.00
2019-01-03T16:36:41.774Z,90.80
2019-01-03T16:39:11.073Z,90.90
2019-01-03T16:41:40.575Z,91.00
2019-01-03T16:44:09.939Z,91.10
2019-01-03T16:46:41.236Z,90.80
2019-01-03T16:49:11.916Z,90.50
2019-01-03T16:51:41.405Z,90.50
2019-01-03T16:54:12.108Z,90.40
2019-01-03T16:56:41.560Z,90.40
2019-01-03T16:59:12.687Z,90.80
2019-01-03T17:01:42.160Z,90.80
2019-01-03T17:04:12.642Z,90.80
2019-01-03T17:06:42.101Z,89.80
2019-01-03T17:09:11.899Z,89.80
2019-01-03T17:11:41.318Z,90.00
2019-01-03T17:14:10.914Z,89.80
2019-01-03T17:16:40.806Z,89.30
2019-01-03T17:19:10.845Z,89.50
2019-01-03T17:21:40.308Z,88.30
2019-01-03T17:24:16.816Z,87.60
2019-01-03T17:26:47.156Z,87.30
2019-01-03T17:29:18.984Z,87.40
2019-01-03T17:31:49.963Z,86.80
2019-01-03T17:34:19.358Z,87.70
2019-01-03T17:36:48.684Z,86.40
2019-01-03T17:39:18.570Z,87.00
2019-01-03T17:41:48.195Z,86.40
2019-01-03T17:44:17.727Z,87.10
2019-01-03T17:46:47.145Z,86.00
2019-01-03T17:49:16.522Z,85.80
2019-01-03T17:51:48.631Z,86.10
2019-01-03T17:54:19.134Z,86.40
2019-01-03T17:56:49.510Z,86.40
2019-01-03T17:59:18.782Z,85.50
2019-01-03T18:01:48.245Z,85.80
2019-01-03T18:04:18.473Z,86.20
2019-01-03T18:06:48.859Z,86.00
2019-01-03T18:09:18.202Z,86.80
2019-01-03T18:11:47.556Z,87.10
2019-01-03T18:14:17.356Z,86.60
2019-01-03T18:16:46.972Z,86.20
2019-01-03T18:19:16.270Z,85.40
2019-01-03T18:21:45.811Z,84.90
2019-01-03T18:24:15.255Z,85.90
2019-01-03T18:26:44.661Z,85.70
2019-01-03T18:29:14.341Z,87.10
2019-01-03T18:31:43.908Z,86.50
2019-01-03T18:34:13.355Z,86.20
2019-01-03T18:36:42.741Z,85.60
2019-01-03T18:39:12.040Z,86.20
2019-01-03T18:41:41.498Z,86.00
2019-01-03T18:44:13.067Z,86.40
2019-01-03T18:46:42.547Z,86.30
2019-01-03T18:49:12.996Z,86.60
2019-01-03T18:51:42.820Z,86.50
2019-01-03T18:54:12.255Z,86.60
2019-01-03T18:56:41.634Z,86.90
2019-01-03T18:59:17.382Z,86.90
2019-01-03T19:01:46.969Z,87.00
2019-01-03T19:04:16.624Z,87.60
2019-01-03T19:06:46.183Z,87.80
2019-01-03T19:09:15.841Z,87.20
2019-01-03T19:11:45.590Z,87.80
2019-01-03T19:14:14.936Z,88.00
2019-01-03T19:16:44.592Z,87.90
2019-01-03T19:19:14.035Z,88.20
2019-01-03T19:21:43.845Z,88.20
2019-01-03T19:24:13.453Z,88.50
2019-01-03T19:26:42.685Z,88.30
2019-01-03T19:29:12.318Z,88.70
2019-01-03T19:31:41.713Z,88.60
2019-01-03T19:34:11.313Z,88.50
2019-01-03T19:36:40.757Z,89.50
2019-01-03T19:39:10.249Z,88.90
2019-01-03T19:41:39.718Z,88.80
2019-01-03T19:44:15.045Z,88.80
2019-01-03T19:46:44.406Z,88.50
2019-01-03T19:49:13.727Z,88.70
2019-01-03T19:51:43.121Z,88.10
2019-01-03T19:54:12.385Z,88.20
2019-01-03T19:56:41.901Z,87.50
2019-01-03T19:59:11.292Z,87.20
2019-01-03T20:01:40.868Z,87.60
2019-01-03T20:04:10.252Z,87.10
2019-01-03T20:06:39.676Z,86.70
2019-01-03T20:09:09.161Z,86.80
2019-01-03T20:11:38.481Z,86.70
2019-01-03T20:14:07.762Z,86.20
2019-01-03T20:16:37.203Z,86.40
2019-01-03T20:19:06.768Z,86.00
2019-01-03T20:21:36.199Z,85.70
2019-01-03T20:24:05.711Z,85.80
2019-01-03T20:26:37.200Z,85.50
2019-01-03T20:29:07.432Z,86.00
2019-01-03T20:31:37.430Z,86.20
2019-01-03T20:34:06.837Z,85.00
2019-01-03T20:36:37.752Z,85.10
2019-01-03T20:39:07.920Z,85.10
2019-01-03T20:41:37.646Z,85.20
2019-01-03T20:44:07.048Z,85.30
2019-01-03T20:46:36.541Z,86.30
2019-01-03T20:49:06.539Z,87.30
2019-01-03T20:51:35.993Z,87.50
2019-01-03T20:54:05.521Z,86.00
2019-01-03T20:56:35.679Z,86.60
2019-01-03T20:59:05.614Z,86.20
2019-01-03T21:01:35.930Z,86.60
2019-01-03T21:04:05.427Z,86.10
2019-01-03T21:06:35.208Z,86.40
2019-01-03T21:09:05.905Z,86.10
2019-01-03T21:11:35.479Z,85.90
2019-01-03T21:14:05.004Z,85.10
2019-01-03T21:16:34.386Z,85.40
2019-01-03T21:19:03.793Z,85.30
2019-01-03T21:21:33.357Z,85.30
2019-01-03T21:24:02.780Z,84.50
2019-01-03T21:26:32.341Z,85.00
2019-01-03T21:29:01.716Z,84.70
2019-01-03T21:31:31.359Z,85.10
2019-01-03T21:34:00.762Z,85.00
2019-01-03T21:36:30.272Z,84.30
2019-01-03T21:38:59.732Z,84.00
2019-01-03T21:41:29.456Z,84.20
2019-01-03T21:43:58.813Z,84.80
2019-01-03T21:46:28.429Z,84.70
2019-01-03T21:48:57.836Z,84.80
2019-01-03T21:51:27.309Z,84.60
2019-01-03T21:53:56.697Z,85.10
2019-01-03T21:56:26.363Z,85.00
2019-01-03T21:58:55.800Z,85.40
2019-01-03T22:01:25.235Z,84.60
2019-01-03T22:03:54.776Z,85.20
2019-01-03T22:06:27.238Z,85.20
2019-01-03T22:08:56.740Z,84.90
2019-01-03T22:11:27.153Z,83.80
2019-01-03T22:13:56.537Z,83.70
2019-01-03T22:16:25.887Z,83.40
2019-01-03T22:18:55.268Z,84.00
2019-01-03T22:21:24.938Z,83.10
2019-01-03T22:23:54.516Z,84.00
2019-01-03T22:26:23.936Z,83.60
2019-01-03T22:28:53.459Z,84.60
2019-01-03T22:31:22.776Z,84.20
2019-01-03T22:33:52.234Z,84.50
2019-01-03T22:36:21.501Z,82.80
2019-01-03T22:38:50.885Z,82.30
2019-01-03T22:41:20.288Z,82.60
2019-01-03T22:43:49.520Z,82.70
2019-01-03T22:46:19.964Z,83.30
2019-01-03T22:48:49.229Z,82.20
2019-01-03T22:51:20.866Z,82.80
2019-01-03T22:53:50.206Z,83.80
2019-01-03T22:56:19.613Z,81.80
2019-01-03T22:58:48.921Z,81.90
2019-01-03T23:01:18.596Z,82.60
2019-01-03T23:03:48.064Z,83.50
2019-01-03T23:06:17.537Z,84.10
2019-01-03T23:08:46.834Z,82.50
2019-01-03T23:11:16.301Z,82.70
2019-01-03T23:13:45.751Z,83.00
2019-01-03T23:16:15.101Z,83.30
2019-01-03T23:18:44.506Z,84.00
2019-01-03T23:21:13.808Z,84.30
2019-01-03T23:23:43.217Z,83.60
2019-01-03T23:26:12.645Z,83.10
2019-01-03T23:28:42.210Z,83.50
2019-01-03T23:31:11.522Z,83.10
2019-01-03T23:33:40.955Z,83.20
2019-01-03T23:36:10.392Z,83.60
2019-01-03T23:38:39.801Z,83.40
2019-01-03T23:41:09.130Z,83.10
2019-01-03T23:43:38.486Z,83.60
2019-01-03T23:46:07.906Z,82.90
2019-01-03T23:48:38.310Z,83.70
2019-01-03T23:51:07.774Z,82.40
2019-01-03T23:53:37.186Z,82.00
2019-01-03T23:56:07.199Z,82.00
2019-01-03T23:58:36.431Z,82.80
